sensor_id;sensor_type;location;lat;lon;timestamp;pressure;altitude;pressure_sealevel;temperature;humidity
53940;BME280;39850;43.324;21.916;2023-04-10T00:29:30;994.0;;;8.9;87.0
53940;BME280;39850;43.324;21.916;2023-04-10T00:34:08;994.0;;;8.9;87.0
53940;BME280;39850;43.324;21.916;2023-04-10T00:38:45;994.0;;;8.9;87.0
53940;BME280;39850;43.324;21.916;2023-04-10T00:43:22;994.0;;;8.9;87.0
53940;BME280;39850;43.324;21.916;2023-04-10T00:47:59;994.0;;;8.9;87.0
53940;BME280;39850;43.324;21.916;2023-04-10T00:52:37;994.0;;;8.9;87.0
53940;BME280;39850;43.324;21.916;2023-04-10T00:57:14;994.0;;;8.9;87.0
53940;BME280;39850;43.324;21.916;2023-04-10T01:01:51;994.0;;;8.9;86.0
53940;BME280;39850;43.324;21.916;2023-04-10T01:07:14;994.0;;;8.9;86.0
53940;BME280;39850;43.324;21.916;2023-04-10T01:13:06;994.0;;;8.9;86.0
53940;BME280;39850;43.324;21.916;2023-04-10T01:18:12;994.0;;;8.9;86.0
53940;BME280;39850;43.324;21.916;2023-04-10T01:52:46;994.0;;;9.1;87.0
53940;BME280;39850;43.324;21.916;2023-04-10T01:57:25;994.0;;;9.1;87.0
53940;BME280;39850;43.324;21.916;2023-04-10T02:02:02;994.0;;;9.1;87.0
53940;BME280;39850;43.324;21.916;2023-04-10T02:07:08;994.0;;;9.1;87.0
53940;BME280;39850;43.324;21.916;2023-04-10T02:12:06;994.0;;;9.1;88.0
53940;BME280;39850;43.324;21.916;2023-04-10T02:16:52;994.0;;;9.1;88.0
53940;BME280;39850;43.324;21.916;2023-04-10T02:21:33;994.0;;;9.0;88.0
53940;BME280;39850;43.324;21.916;2023-04-10T02:26:11;994.0;;;9.0;88.0
53940;BME280;39850;43.324;21.916;2023-04-10T02:30:48;994.0;;;9.0;88.0
53940;BME280;39850;43.324;21.916;2023-04-10T02:35:25;994.0;;;9.0;88.0
53940;BME280;39850;43.324;21.916;2023-04-10T03:12:21;993.0;;;8.9;86.0
53940;BME280;39850;43.324;21.916;2023-04-10T03:16:58;993.0;;;8.9;86.0
53940;BME280;39850;43.324;21.916;2023-04-10T03:21:35;993.0;;;9.0;87.0
53940;BME280;39850;43.324;21.916;2023-04-10T03:26:12;993.0;;;9.0;87.0
53940;BME280;39850;43.324;21.916;2023-04-10T03:30:51;993.0;;;9.0;87.0
53940;BME280;39850;43.324;21.916;2023-04-10T03:35:28;993.0;;;9.0;87.0
53940;BME280;39850;43.324;21.916;2023-04-10T03:40:12;994.0;;;9.0;87.0
53940;BME280;39850;43.324;21.916;2023-04-10T03:44:49;994.0;;;9.0;87.0
53940;BME280;39850;43.324;21.916;2023-04-10T03:49:26;994.0;;;9.0;87.0
53940;BME280;39850;43.324;21.916;2023-04-10T03:54:03;994.0;;;9.1;88.0
53940;BME280;39850;43.324;21.916;2023-04-10T03:58:39;994.0;;;9.1;88.0
53940;BME280;39850;43.324;21.916;2023-04-10T04:30:54;994.0;;;9.0;85.0
53940;BME280;39850;43.324;21.916;2023-04-10T04:35:30;994.0;;;9.0;85.0
53940;BME280;39850;43.324;21.916;2023-04-10T04:40:11;994.0;;;9.0;86.0
53940;BME280;39850;43.324;21.916;2023-04-10T04:44:50;994.0;;;9.0;86.0
53940;BME280;39850;43.324;21.916;2023-04-10T04:49:26;994.0;;;9.0;86.0
53940;BME280;39850;43.324;21.916;2023-04-10T04:54:04;994.0;;;9.1;86.0
53940;BME280;39850;43.324;21.916;2023-04-10T04:58:40;994.0;;;9.1;86.0
53940;BME280;39850;43.324;21.916;2023-04-10T05:03:17;994.0;;;9.1;86.0
53940;BME280;39850;43.324;21.916;2023-04-10T05:07:54;994.0;;;9.1;86.0
53940;BME280;39850;43.324;21.916;2023-04-10T05:12:31;994.0;;;9.1;86.0
53940;BME280;39850;43.324;21.916;2023-04-10T05:17:07;994.0;;;9.1;86.0
53940;BME280;39850;43.324;21.916;2023-04-10T05:54:03;994.0;;;8.2;90.0
53940;BME280;39850;43.324;21.916;2023-04-10T05:58:39;994.0;;;8.2;90.0
53940;BME280;39850;43.324;21.916;2023-04-10T06:03:16;994.0;;;8.1;90.0
53940;BME280;39850;43.324;21.916;2023-04-10T06:07:53;994.0;;;8.1;90.0
53940;BME280;39850;43.324;21.916;2023-04-10T06:12:30;994.0;;;8.1;90.0
53940;BME280;39850;43.324;21.916;2023-04-10T06:17:07;994.0;;;8.1;90.0
53940;BME280;39850;43.324;21.916;2023-04-10T06:21:44;994.0;;;8.0;90.0
53940;BME280;39850;43.324;21.916;2023-04-10T06:26:21;994.0;;;8.0;90.0
53940;BME280;39850;43.324;21.916;2023-04-10T06:30:57;994.0;;;8.0;90.0
53940;BME280;39850;43.324;21.916;2023-04-10T06:35:36;994.0;;;8.0;90.0
53940;BME280;39850;43.324;21.916;2023-04-10T06:40:14;994.0;;;8.0;90.0
53940;BME280;39850;43.324;21.916;2023-04-10T07:12:29;995.0;;;9.7;86.0
53940;BME280;39850;43.324;21.916;2023-04-10T07:17:06;995.0;;;9.7;86.0
53940;BME280;39850;43.324;21.916;2023-04-10T07:21:43;995.0;;;10.4;82.0
53940;BME280;39850;43.324;21.916;2023-04-10T07:26:20;995.0;;;10.4;82.0
53940;BME280;39850;43.324;21.916;2023-04-10T07:30:57;995.0;;;10.9;79.0
53940;BME280;39850;43.324;21.916;2023-04-10T07:35:34;995.0;;;10.9;79.0
53940;BME280;39850;43.324;21.916;2023-04-10T07:40:12;995.0;;;10.9;79.0
53940;BME280;39850;43.324;21.916;2023-04-10T07:44:49;995.0;;;11.0;79.0
53940;BME280;39850;43.324;21.916;2023-04-10T07:49:26;995.0;;;11.0;79.0
53940;BME280;39850;43.324;21.916;2023-04-10T07:54:03;995.0;;;10.9;79.0
53940;BME280;39850;43.324;21.916;2023-04-10T07:58:40;995.0;;;10.9;79.0
53940;BME280;39850;43.324;21.916;2023-04-10T08:31:05;994.0;;;12.9;71.0
53940;BME280;39850;43.324;21.916;2023-04-10T08:35:46;994.0;;;12.9;71.0
53940;BME280;39850;43.324;21.916;2023-04-10T08:40:23;994.0;;;12.9;71.0
53940;BME280;39850;43.324;21.916;2023-04-10T08:45:00;994.0;;;13.2;70.0
53940;BME280;39850;43.324;21.916;2023-04-10T08:50:05;994.0;;;13.2;70.0
53940;BME280;39850;43.324;21.916;2023-04-10T08:54:59;994.0;;;13.4;70.0
53940;BME280;39850;43.324;21.916;2023-04-10T08:59:44;994.0;;;13.4;70.0
53940;BME280;39850;43.324;21.916;2023-04-10T09:04:23;994.0;;;13.5;69.0
53940;BME280;39850;43.324;21.916;2023-04-10T09:09:01;994.0;;;13.5;69.0
53940;BME280;39850;43.324;21.916;2023-04-10T09:13:43;994.0;;;13.6;69.0
53940;BME280;39850;43.324;21.916;2023-04-10T09:18:20;994.0;;;13.6;69.0
53940;BME280;39850;43.324;21.916;2023-04-10T09:51:27;994.0;;;11.8;77.0
53940;BME280;39850;43.324;21.916;2023-04-10T09:56:07;994.0;;;11.8;77.0
53940;BME280;39850;43.324;21.916;2023-04-10T10:00:49;994.0;;;11.8;77.0
53940;BME280;39850;43.324;21.916;2023-04-10T10:05:27;994.0;;;11.8;77.0
53940;BME280;39850;43.324;21.916;2023-04-10T10:10:10;994.0;;;11.8;77.0
53940;BME280;39850;43.324;21.916;2023-04-10T10:15:16;994.0;;;12.0;76.0
53940;BME280;39850;43.324;21.916;2023-04-10T10:20:12;994.0;;;12.0;76.0
53940;BME280;39850;43.324;21.916;2023-04-10T10:24:59;994.0;;;12.2;76.0
53940;BME280;39850;43.324;21.916;2023-04-10T10:29:47;994.0;;;12.2;76.0
53940;BME280;39850;43.324;21.916;2023-04-10T10:34:30;994.0;;;12.2;76.0
53940;BME280;39850;43.324;21.916;2023-04-10T10:39:53;994.0;;;12.2;76.0
53940;BME280;39850;43.324;21.916;2023-04-10T11:13:27;993.0;;;12.7;70.0
53940;BME280;39850;43.324;21.916;2023-04-10T11:18:04;993.0;;;12.7;70.0
53940;BME280;39850;43.324;21.916;2023-04-10T11:23:12;993.0;;;13.1;67.0
53940;BME280;39850;43.324;21.916;2023-04-10T11:27:49;993.0;;;13.1;67.0
53940;BME280;39850;43.324;21.916;2023-04-10T11:32:26;993.0;;;12.7;67.0
53940;BME280;39850;43.324;21.916;2023-04-10T11:37:03;993.0;;;12.7;67.0
53940;BME280;39850;43.324;21.916;2023-04-10T11:41:48;993.0;;;13.1;65.0
53940;BME280;39850;43.324;21.916;2023-04-10T11:46:29;993.0;;;13.1;65.0
53940;BME280;39850;43.324;21.916;2023-04-10T11:51:13;993.0;;;13.1;65.0
53940;BME280;39850;43.324;21.916;2023-04-10T11:55:50;993.0;;;12.7;67.0
53940;BME280;39850;43.324;21.916;2023-04-10T12:00:26;993.0;;;12.7;67.0
53940;BME280;39850;43.324;21.916;2023-04-10T12:32:57;992.0;;;10.8;75.0
53940;BME280;39850;43.324;21.916;2023-04-10T12:37:51;992.0;;;10.8;75.0
53940;BME280;39850;43.324;21.916;2023-04-10T12:42:28;992.0;;;10.9;72.0
53940;BME280;39850;43.324;21.916;2023-04-10T12:47:05;992.0;;;10.9;72.0
53940;BME280;39850;43.324;21.916;2023-04-10T12:51:51;992.0;;;10.9;74.0
53940;BME280;39850;43.324;21.916;2023-04-10T12:56:44;992.0;;;10.9;74.0
53940;BME280;39850;43.324;21.916;2023-04-10T13:01:21;992.0;;;10.9;74.0
53940;BME280;39850;43.324;21.916;2023-04-10T13:05:58;992.0;;;11.1;72.0
53940;BME280;39850;43.324;21.916;2023-04-10T13:10:36;992.0;;;11.1;72.0
53940;BME280;39850;43.324;21.916;2023-04-10T13:15:13;992.0;;;11.3;74.0
53940;BME280;39850;43.324;21.916;2023-04-10T13:19:51;992.0;;;11.3;74.0
53940;BME280;39850;43.324;21.916;2023-04-10T13:52:12;991.0;;;11.3;73.0
53940;BME280;39850;43.324;21.916;2023-04-10T13:56:49;991.0;;;11.3;73.0
53940;BME280;39850;43.324;21.916;2023-04-10T14:01:26;991.0;;;11.3;73.0
53940;BME280;39850;43.324;21.916;2023-04-10T14:06:05;991.0;;;11.2;72.0
53940;BME280;39850;43.324;21.916;2023-04-10T14:10:44;991.0;;;11.2;72.0
53940;BME280;39850;43.324;21.916;2023-04-10T14:15:23;991.0;;;11.3;72.0
53940;BME280;39850;43.324;21.916;2023-04-10T14:20:00;991.0;;;11.3;72.0
53940;BME280;39850;43.324;21.916;2023-04-10T14:24:37;991.0;;;11.4;71.0
53940;BME280;39850;43.324;21.916;2023-04-10T14:29:14;991.0;;;11.4;71.0
53940;BME280;39850;43.324;21.916;2023-04-10T14:33:51;991.0;;;11.8;72.0
53940;BME280;39850;43.324;21.916;2023-04-10T14:38:28;991.0;;;11.8;72.0
53940;BME280;39850;43.324;21.916;2023-04-10T15:15:20;991.0;;;9.1;82.0
53940;BME280;39850;43.324;21.916;2023-04-10T15:19:57;991.0;;;9.1;82.0
53940;BME280;39850;43.324;21.916;2023-04-10T15:24:34;992.0;;;8.6;83.0
53940;BME280;39850;43.324;21.916;2023-04-10T15:29:12;992.0;;;8.6;83.0
53940;BME280;39850;43.324;21.916;2023-04-10T15:33:51;992.0;;;8.1;82.0
53940;BME280;39850;43.324;21.916;2023-04-10T15:38:29;992.0;;;8.1;82.0
53940;BME280;39850;43.324;21.916;2023-04-10T15:43:07;992.0;;;8.0;83.0
53940;BME280;39850;43.324;21.916;2023-04-10T15:47:47;992.0;;;8.0;83.0
53940;BME280;39850;43.324;21.916;2023-04-10T15:52:24;992.0;;;8.0;82.0
53940;BME280;39850;43.324;21.916;2023-04-10T15:57:01;992.0;;;8.0;82.0
53940;BME280;39850;43.324;21.916;2023-04-10T16:01:43;992.0;;;8.0;82.0
53940;BME280;39850;43.324;21.916;2023-04-10T16:34:10;992.0;;;9.1;80.0
53940;BME280;39850;43.324;21.916;2023-04-10T16:38:47;992.0;;;9.1;80.0
53940;BME280;39850;43.324;21.916;2023-04-10T16:43:24;992.0;;;8.8;80.0
53940;BME280;39850;43.324;21.916;2023-04-10T16:48:01;992.0;;;8.8;80.0
53940;BME280;39850;43.324;21.916;2023-04-10T16:52:38;992.0;;;8.6;80.0
53940;BME280;39850;43.324;21.916;2023-04-10T16:57:15;992.0;;;8.6;80.0
53940;BME280;39850;43.324;21.916;2023-04-10T17:01:51;992.0;;;8.6;80.0
53940;BME280;39850;43.324;21.916;2023-04-10T17:06:28;992.0;;;8.3;81.0
53940;BME280;39850;43.324;21.916;2023-04-10T17:11:06;992.0;;;8.3;81.0
53940;BME280;39850;43.324;21.916;2023-04-10T17:15:43;992.0;;;8.0;82.0
53940;BME280;39850;43.324;21.916;2023-04-10T17:20:20;992.0;;;8.0;82.0
53940;BME280;39850;43.324;21.916;2023-04-10T17:57:19;993.0;;;8.1;86.0
53940;BME280;39850;43.324;21.916;2023-04-10T18:01:55;993.0;;;8.1;86.0
53940;BME280;39850;43.324;21.916;2023-04-10T18:06:32;993.0;;;7.8;87.0
53940;BME280;39850;43.324;21.916;2023-04-10T18:11:09;993.0;;;7.8;87.0
53940;BME280;39850;43.324;21.916;2023-04-10T18:15:46;993.0;;;7.6;87.0
53940;BME280;39850;43.324;21.916;2023-04-10T18:20:23;993.0;;;7.6;87.0
53940;BME280;39850;43.324;21.916;2023-04-10T18:25:00;993.0;;;7.5;87.0
53940;BME280;39850;43.324;21.916;2023-04-10T18:29:37;993.0;;;7.5;87.0
53940;BME280;39850;43.324;21.916;2023-04-10T18:34:14;993.0;;;7.4;87.0
53940;BME280;39850;43.324;21.916;2023-04-10T18:38:51;993.0;;;7.4;87.0
53940;BME280;39850;43.324;21.916;2023-04-10T19:15:47;993.0;;;8.0;84.0
53940;BME280;39850;43.324;21.916;2023-04-10T19:20:25;993.0;;;8.0;84.0
53940;BME280;39850;43.324;21.916;2023-04-10T19:25:02;993.0;;;8.0;84.0
53940;BME280;39850;43.324;21.916;2023-04-10T19:29:39;993.0;;;8.0;84.0
53940;BME280;39850;43.324;21.916;2023-04-10T19:34:15;993.0;;;8.0;84.0
53940;BME280;39850;43.324;21.916;2023-04-10T19:38:52;993.0;;;8.0;84.0
53940;BME280;39850;43.324;21.916;2023-04-10T19:43:28;993.0;;;8.4;84.0
53940;BME280;39850;43.324;21.916;2023-04-10T19:48:06;993.0;;;8.4;84.0
53940;BME280;39850;43.324;21.916;2023-04-10T19:52:43;993.0;;;8.4;84.0
53940;BME280;39850;43.324;21.916;2023-04-10T19:57:19;993.0;;;8.7;83.0
53940;BME280;39850;43.324;21.916;2023-04-10T20:01:57;993.0;;;8.7;83.0
53940;BME280;39850;43.324;21.916;2023-04-10T20:34:14;993.0;;;8.9;80.0
53940;BME280;39850;43.324;21.916;2023-04-10T20:38:51;993.0;;;8.9;80.0
53940;BME280;39850;43.324;21.916;2023-04-10T20:43:28;993.0;;;8.9;80.0
53940;BME280;39850;43.324;21.916;2023-04-10T20:48:07;993.0;;;8.9;80.0
53940;BME280;39850;43.324;21.916;2023-04-10T20:52:44;993.0;;;8.9;80.0
53940;BME280;39850;43.324;21.916;2023-04-10T20:57:21;993.0;;;8.9;80.0
53940;BME280;39850;43.324;21.916;2023-04-10T21:01:58;993.0;;;8.9;80.0
53940;BME280;39850;43.324;21.916;2023-04-10T21:06:35;993.0;;;8.9;79.0
53940;BME280;39850;43.324;21.916;2023-04-10T21:11:12;993.0;;;8.9;79.0
53940;BME280;39850;43.324;21.916;2023-04-10T21:15:50;993.0;;;8.9;80.0
53940;BME280;39850;43.324;21.916;2023-04-10T21:20:27;993.0;;;8.9;80.0
53940;BME280;39850;43.324;21.916;2023-04-10T21:57:24;993.0;;;9.1;79.0
53940;BME280;39850;43.324;21.916;2023-04-10T22:02:01;993.0;;;9.1;79.0
53940;BME280;39850;43.324;21.916;2023-04-10T22:06:37;993.0;;;9.1;79.0
53940;BME280;39850;43.324;21.916;2023-04-10T22:11:14;993.0;;;9.1;79.0
53940;BME280;39850;43.324;21.916;2023-04-10T22:15:51;993.0;;;9.1;79.0
53940;BME280;39850;43.324;21.916;2023-04-10T22:20:28;993.0;;;9.1;79.0
53940;BME280;39850;43.324;21.916;2023-04-10T22:25:07;993.0;;;9.1;79.0
53940;BME280;39850;43.324;21.916;2023-04-10T22:29:45;993.0;;;9.1;79.0
53940;BME280;39850;43.324;21.916;2023-04-10T22:34:22;993.0;;;9.1;80.0
53940;BME280;39850;43.324;21.916;2023-04-10T22:38:59;993.0;;;9.1;80.0
53940;BME280;39850;43.324;21.916;2023-04-10T22:43:36;993.0;;;9.1;80.0
53940;BME280;39850;43.324;21.916;2023-04-10T23:15:55;992.0;;;8.9;79.0
53940;BME280;39850;43.324;21.916;2023-04-10T23:20:32;992.0;;;8.9;79.0
53940;BME280;39850;43.324;21.916;2023-04-10T23:25:09;992.0;;;9.0;80.0
53940;BME280;39850;43.324;21.916;2023-04-10T23:29:48;992.0;;;9.0;80.0
53940;BME280;39850;43.324;21.916;2023-04-10T23:34:25;992.0;;;9.1;80.0
53940;BME280;39850;43.324;21.916;2023-04-10T23:39:02;992.0;;;9.1;80.0
53940;BME280;39850;43.324;21.916;2023-04-10T23:43:39;992.0;;;9.1;80.0
53940;BME280;39850;43.324;21.916;2023-04-10T23:48:16;992.0;;;9.1;80.0
53940;BME280;39850;43.324;21.916;2023-04-10T23:52:53;992.0;;;9.1;80.0
53940;BME280;39850;43.324;21.916;2023-04-10T23:57:29;992.0;;;9.1;81.0
